Time;durP1;ratioP1;P1;durP2;ratioP2;P2;SDS_P1;SDS_P2;PMS_P1;PMS_P2;Temp;Humidity;BMP_temperature;BMP_pressure;BME280_temperature;BME280_humidity;BME280_pressure;Samples;Min_cycle;Max_cycle;Signal;HPM_P1;HPM_P2
2021/12/29 00:01:57;;;;;;;404.50;58.90;;;;;;;;;;4991991;28;20425;-62
2021/12/29 00:04:24;;;;;;;425.60;61.83;;;;;;;;;;4958015;28;20085;-63
2021/12/29 00:06:50;;;;;;;439.50;61.05;;;;;;;;;;4989028;28;20129;-63
2021/12/29 00:09:16;;;;;;;498.70;69.72;;;;;;;;;;4989516;28;20042;-62
2021/12/29 00:11:42;;;;;;;441.48;58.50;;;;;;;;;;4991105;28;20030;-63
2021/12/29 00:14:10;;;;;;;445.17;65.50;;;;;;;;;;4955884;28;20524;-62
2021/12/29 00:16:36;;;;;;;848.05;96.60;;;;;;;;;;4989342;28;20046;-63
2021/12/29 00:19:04;;;;;;;395.27;59.40;;;;;;;;;;4991110;28;20062;-63
2021/12/29 00:21:32;;;;;;;390.13;60.22;;;;;;;;;;4990889;28;20042;-63
2021/12/29 00:23:59;;;;;;;324.08;56.88;;;;;;;;;;4991414;28;20042;-62
2021/12/29 00:26:29;;;;;;;395.05;62.88;;;;;;;;;;4973899;28;20137;-62
2021/12/29 00:28:59;;;;;;;380.13;64.10;;;;;;;;;;4984357;28;20042;-63
2021/12/29 00:31:26;;;;;;;334.05;60.60;;;;;;;;;;4988957;28;20050;-63
2021/12/29 00:33:52;;;;;;;186.25;48.08;;;;;;;;;;4991151;28;20117;-62
2021/12/29 00:36:18;;;;;;;175.25;47.60;;;;;;;;;;4972840;28;20532;-63
2021/12/29 00:38:45;;;;;;;207.38;49.22;;;;;;;;;;4990607;28;20038;-63
2021/12/29 00:41:11;;;;;;;291.65;58.00;;;;;;;;;;4989606;28;20141;-62
2021/12/29 00:43:37;;;;;;;234.65;50.58;;;;;;;;;;4988903;28;20046;-62
2021/12/29 00:46:04;;;;;;;348.20;61.88;;;;;;;;;;4988745;28;20133;-63
2021/12/29 00:48:36;;;;;;;213.40;50.45;;;;;;;;;;4997771;28;20045;-63
2021/12/29 00:51:03;;;;;;;250.82;51.38;;;;;;;;;;4989187;28;20049;-63
2021/12/29 00:53:29;;;;;;;202.77;46.55;;;;;;;;;;4989465;28;20465;-62
2021/12/29 00:55:55;;;;;;;250.35;47.03;;;;;;;;;;4989770;28;20073;-62
2021/12/29 00:58:21;;;;;;;244.02;46.10;;;;;;;;;;4990659;28;20437;-63
2021/12/29 01:00:47;;;;;;;401.90;63.28;;;;;;;;;;4990434;28;20044;-63
2021/12/29 01:03:14;;;;;;;201.55;44.53;;;;;;;;;;4990257;28;20497;-62
2021/12/29 01:05:40;;;;;;;243.45;46.05;;;;;;;;;;4990545;28;20073;-62
2021/12/29 01:08:06;;;;;;;275.33;47.67;;;;;;;;;;4988816;28;20118;-62
2021/12/29 01:10:33;;;;;;;261.77;47.15;;;;;;;;;;4989765;28;20053;-63
2021/12/29 01:13:01;;;;;;;150.93;39.08;;;;;;;;;;4999290;28;20044;-63
2021/12/29 01:15:34;;;;;;;164.07;40.70;;;;;;;;;;4987575;28;20065;-62
2021/12/29 01:18:04;;;;;;;159.73;38.58;;;;;;;;;;4987928;28;20066;-64
2021/12/29 01:20:31;;;;;;;133.45;36.63;;;;;;;;;;4990085;28;20046;-62
2021/12/29 01:22:58;;;;;;;184.85;41.67;;;;;;;;;;4988825;28;20519;-62
2021/12/29 01:25:24;;;;;;;206.25;43.42;;;;;;;;;;4989361;28;20043;-63
2021/12/29 01:27:50;;;;;;;188.23;42.17;;;;;;;;;;4989176;28;20061;-63
2021/12/29 01:30:17;;;;;;;192.65;41.90;;;;;;;;;;4988039;28;20496;-62
2021/12/29 01:32:43;;;;;;;219.13;45.30;;;;;;;;;;4989637;28;20042;-62
2021/12/29 01:35:10;;;;;;;206.43;43.25;;;;;;;;;;4987298;28;20493;-62
2021/12/29 01:37:37;;;;;;;177.90;41.70;;;;;;;;;;4987892;28;20061;-62
2021/12/29 01:40:05;;;;;;;105.22;34.30;;;;;;;;;;4989144;28;20492;-62
2021/12/29 01:42:31;;;;;;;159.68;41.60;;;;;;;;;;4987816;28;20069;-62
2021/12/29 01:44:57;;;;;;;135.93;37.10;;;;;;;;;;4988903;28;20038;-62
2021/12/29 01:47:24;;;;;;;137.95;36.80;;;;;;;;;;4987158;28;20042;-62
2021/12/29 01:49:51;;;;;;;114.82;32.13;;;;;;;;;;4989111;28;20046;-63
2021/12/29 01:52:21;;;;;;;130.95;34.33;;;;;;;;;;4988097;28;20042;-62
2021/12/29 01:54:47;;;;;;;118.65;32.83;;;;;;;;;;4987323;28;20081;-62
2021/12/29 01:57:14;;;;;;;125.30;30.88;;;;;;;;;;4987933;28;20061;-63
2021/12/29 01:59:43;;;;;;;118.35;30.95;;;;;;;;;;4987400;28;20044;-63
2021/12/29 02:02:14;;;;;;;140.20;33.97;;;;;;;;;;4986903;28;20042;-64
2021/12/29 02:04:41;;;;;;;144.88;33.08;;;;;;;;;;4988468;28;20043;-63
2021/12/29 02:07:07;;;;;;;127.55;29.70;;;;;;;;;;4986674;28;20408;-64
2021/12/29 02:09:33;;;;;;;128.65;28.90;;;;;;;;;;4988016;28;20042;-64
2021/12/29 02:11:59;;;;;;;233.68;38.92;;;;;;;;;;4986857;28;20046;-63
2021/12/29 02:14:26;;;;;;;164.18;30.98;;;;;;;;;;4995365;28;20117;-64
2021/12/29 02:16:52;;;;;;;189.82;33.10;;;;;;;;;;4986746;28;20088;-63
2021/12/29 02:19:18;;;;;;;151.38;28.98;;;;;;;;;;4970434;28;20065;-63
2021/12/29 02:21:54;;;;;;;158.77;27.55;;;;;;;;;;4995441;28;20084;-64
2021/12/29 02:24:23;;;;;;;217.18;32.03;;;;;;;;;;4987264;28;20046;-63
2021/12/29 02:26:51;;;;;;;190.68;26.90;;;;;;;;;;4986651;28;20555;-64
2021/12/29 02:29:18;;;;;;;223.15;28.42;;;;;;;;;;4986687;28;20042;-63
2021/12/29 02:31:46;;;;;;;229.63;27.98;;;;;;;;;;4987521;28;20089;-64
2021/12/29 02:34:14;;;;;;;224.48;27.98;;;;;;;;;;4986151;28;20039;-63
2021/12/29 02:36:43;;;;;;;185.43;25.10;;;;;;;;;;5000082;28;20136;-65
2021/12/29 02:39:20;;;;;;;243.40;28.08;;;;;;;;;;4987916;28;20085;-63
2021/12/29 02:41:50;;;;;;;241.57;27.08;;;;;;;;;;4986504;28;20463;-63
2021/12/29 02:44:20;;;;;;;261.75;26.13;;;;;;;;;;4986553;28;20572;-63
2021/12/29 02:46:47;;;;;;;154.13;20.75;;;;;;;;;;4969906;28;20615;-64
2021/12/29 02:49:13;;;;;;;168.18;22.90;;;;;;;;;;4987935;28;20050;-62
2021/12/29 02:51:40;;;;;;;145.25;21.63;;;;;;;;;;4987965;28;20034;-62
2021/12/29 02:54:06;;;;;;;130.45;20.83;;;;;;;;;;4986795;28;20042;-63
2021/12/29 02:56:32;;;;;;;150.57;22.40;;;;;;;;;;4988178;28;20535;-62
2021/12/29 02:58:58;;;;;;;158.18;21.55;;;;;;;;;;4986923;28;20133;-63
2021/12/29 03:01:27;;;;;;;185.25;23.58;;;;;;;;;;4970744;28;20046;-63
2021/12/29 03:03:53;;;;;;;183.90;21.90;;;;;;;;;;4987247;28;20100;-62
2021/12/29 03:06:19;;;;;;;217.13;24.92;;;;;;;;;;4988037;28;20042;-63
2021/12/29 03:08:46;;;;;;;195.60;23.25;;;;;;;;;;4987608;28;20069;-62
2021/12/29 03:11:12;;;;;;;190.77;24.13;;;;;;;;;;4986041;28;20046;-63
2021/12/29 03:13:39;;;;;;;211.05;25.30;;;;;;;;;;4986557;28;20126;-62
2021/12/29 03:16:07;;;;;;;269.63;28.90;;;;;;;;;;4969991;28;20500;-63
2021/12/29 03:18:33;;;;;;;212.95;27.63;;;;;;;;;;4986906;28;20053;-62
2021/12/29 03:21:00;;;;;;;212.13;27.85;;;;;;;;;;4970290;28;20050;-63
2021/12/29 03:23:26;;;;;;;208.88;29.55;;;;;;;;;;4987887;28;20104;-62
2021/12/29 03:25:52;;;;;;;238.25;30.50;;;;;;;;;;4987880;28;20046;-63
2021/12/29 03:28:19;;;;;;;225.60;28.80;;;;;;;;;;4986450;28;20030;-62
2021/12/29 03:30:48;;;;;;;245.02;31.33;;;;;;;;;;4986294;28;20042;-63
2021/12/29 03:33:14;;;;;;;267.40;33.10;;;;;;;;;;4986002;28;20190;-63
2021/12/29 03:35:42;;;;;;;262.92;33.22;;;;;;;;;;4986463;28;20519;-62
2021/12/29 03:38:10;;;;;;;268.83;34.22;;;;;;;;;;4987627;28;20034;-63
2021/12/29 03:40:36;;;;;;;256.23;32.22;;;;;;;;;;4986734;28;20046;-63
2021/12/29 03:43:04;;;;;;;261.05;35.75;;;;;;;;;;4997802;28;20082;-63
2021/12/29 03:45:30;;;;;;;229.68;30.95;;;;;;;;;;4994514;28;20371;-63
2021/12/29 03:47:56;;;;;;;279.85;35.63;;;;;;;;;;4996746;28;20042;-62
2021/12/29 03:50:22;;;;;;;286.55;35.72;;;;;;;;;;4986523;28;20042;-62
2021/12/29 03:52:48;;;;;;;217.65;30.33;;;;;;;;;;4986479;28;20046;-64
2021/12/29 03:55:14;;;;;;;237.55;34.05;;;;;;;;;;4986711;28;20516;-64
2021/12/29 03:57:41;;;;;;;222.20;34.22;;;;;;;;;;4986540;28;20509;-63
2021/12/29 04:00:09;;;;;;;239.95;33.63;;;;;;;;;;4985668;28;20046;-62
2021/12/29 04:02:35;;;;;;;258.88;35.72;;;;;;;;;;4985896;28;20046;-62
2021/12/29 04:05:02;;;;;;;217.90;33.50;;;;;;;;;;4985863;28;20045;-64
2021/12/29 04:07:28;;;;;;;222.93;34.10;;;;;;;;;;4985359;28;20043;-63
2021/12/29 04:09:54;;;;;;;217.75;33.50;;;;;;;;;;4987354;28;20053;-62
2021/12/29 04:12:20;;;;;;;261.08;35.65;;;;;;;;;;4986663;28;20460;-63
2021/12/29 04:14:46;;;;;;;226.05;31.80;;;;;;;;;;4952955;28;20117;-62
2021/12/29 04:17:15;;;;;;;250.73;34.47;;;;;;;;;;4987270;28;20046;-63
2021/12/29 04:20:54;;;;;;;259.95;33.53;;;;;;;;;;4982914;28;20058;-63
2021/12/29 04:22:31;;;;;;;335.10;38.83;;;;;;;;;;4989323;28;20042;-62
2021/12/29 04:24:57;;;;;;;324.27;37.25;;;;;;;;;;4991240;28;20034;-62
2021/12/29 04:27:25;;;;;;;326.10;36.30;;;;;;;;;;4991378;28;20077;-63
2021/12/29 04:29:51;;;;;;;292.88;34.00;;;;;;;;;;4989407;28;20046;-63
2021/12/29 04:32:17;;;;;;;367.95;36.58;;;;;;;;;;4989081;28;20034;-62
2021/12/29 04:34:43;;;;;;;324.77;37.10;;;;;;;;;;4990949;28;20038;-62
2021/12/29 04:37:10;;;;;;;305.08;36.63;;;;;;;;;;4988671;28;20038;-62
2021/12/29 04:39:36;;;;;;;318.73;37.45;;;;;;;;;;4989137;28;20120;-63
2021/12/29 04:42:02;;;;;;;288.15;36.72;;;;;;;;;;4990426;28;20502;-63
2021/12/29 04:44:28;;;;;;;321.48;36.85;;;;;;;;;;4988815;28;20042;-61
2021/12/29 04:46:57;;;;;;;338.38;39.05;;;;;;;;;;4988998;28;20507;-61
2021/12/29 04:49:27;;;;;;;317.77;37.85;;;;;;;;;;4989108;28;20117;-62
2021/12/29 04:52:02;;;;;;;318.40;38.53;;;;;;;;;;4987403;28;20034;-62
2021/12/29 04:54:34;;;;;;;347.38;38.20;;;;;;;;;;4973703;28;20157;-63
2021/12/29 04:57:01;;;;;;;327.73;35.75;;;;;;;;;;4992407;28;20081;-61
2021/12/29 04:59:28;;;;;;;329.50;34.63;;;;;;;;;;4988452;28;20126;-62
2021/12/29 05:01:54;;;;;;;412.52;40.88;;;;;;;;;;4990186;28;20395;-61
2021/12/29 05:04:23;;;;;;;470.70;44.08;;;;;;;;;;4990400;28;20034;-62
2021/12/29 05:09:34;;;;;;;397.88;38.33;;;;;;;;;;4988908;28;20067;-61
2021/12/29 05:12:01;;;;;;;406.85;38.70;;;;;;;;;;4989773;28;20054;-61
2021/12/29 05:14:28;;;;;;;408.48;37.03;;;;;;;;;;4989894;28;20042;-62
2021/12/29 05:16:54;;;;;;;426.25;37.88;;;;;;;;;;4988090;28;20461;-61
2021/12/29 05:19:20;;;;;;;462.83;39.60;;;;;;;;;;4987824;28;20061;-62
2021/12/29 05:21:47;;;;;;;425.83;36.30;;;;;;;;;;4988183;28;20050;-62
2021/12/29 05:24:13;;;;;;;385.05;34.20;;;;;;;;;;4989511;28;20038;-62
2021/12/29 05:26:39;;;;;;;411.75;34.08;;;;;;;;;;4989589;28;20074;-63
2021/12/29 05:29:05;;;;;;;383.20;33.33;;;;;;;;;;4988493;28;20540;-63
2021/12/29 05:31:31;;;;;;;407.70;33.25;;;;;;;;;;4988662;28;20034;-62
2021/12/29 05:33:57;;;;;;;503.05;39.00;;;;;;;;;;4987720;28;20030;-62
2021/12/29 05:36:24;;;;;;;406.23;32.75;;;;;;;;;;4989102;28;20045;-62
2021/12/29 05:38:50;;;;;;;343.88;31.00;;;;;;;;;;4988721;28;20562;-62
2021/12/29 05:41:16;;;;;;;358.48;31.58;;;;;;;;;;4993772;28;20499;-62
2021/12/29 05:43:42;;;;;;;349.80;32.08;;;;;;;;;;4987280;28;20046;-62
2021/12/29 05:46:09;;;;;;;372.38;32.60;;;;;;;;;;4988532;28;20034;-62
2021/12/29 05:48:35;;;;;;;309.88;29.75;;;;;;;;;;4987765;28;20034;-62
2021/12/29 05:51:01;;;;;;;295.33;29.38;;;;;;;;;;4989265;28;20416;-63
2021/12/29 05:53:27;;;;;;;342.05;34.38;;;;;;;;;;4998663;28;20042;-62
2021/12/29 05:55:54;;;;;;;306.25;29.13;;;;;;;;;;4987323;28;20034;-62
2021/12/29 05:58:20;;;;;;;342.73;31.55;;;;;;;;;;4988116;28;20392;-62
2021/12/29 06:00:46;;;;;;;340.25;32.17;;;;;;;;;;4987326;28;20042;-62
2021/12/29 06:03:13;;;;;;;407.48;32.42;;;;;;;;;;4986887;28;20504;-62
2021/12/29 06:05:39;;;;;;;388.05;31.73;;;;;;;;;;4988633;28;20480;-63
2021/12/29 06:08:06;;;;;;;365.45;30.75;;;;;;;;;;4996530;28;20096;-62
2021/12/29 06:10:32;;;;;;;435.05;33.92;;;;;;;;;;4988991;28;20038;-62
2021/12/29 06:12:58;;;;;;;470.40;33.53;;;;;;;;;;4987272;28;20038;-62
2021/12/29 06:15:24;;;;;;;490.15;35.28;;;;;;;;;;4988543;28;20475;-62
2021/12/29 06:17:50;;;;;;;501.00;36.08;;;;;;;;;;4971167;28;20141;-63
2021/12/29 06:20:17;;;;;;;504.20;37.58;;;;;;;;;;4997396;28;20052;-62
2021/12/29 06:22:43;;;;;;;466.33;35.50;;;;;;;;;;4986854;28;20046;-63
2021/12/29 06:25:11;;;;;;;466.02;36.58;;;;;;;;;;4988483;28;20042;-63
2021/12/29 06:27:38;;;;;;;479.42;37.92;;;;;;;;;;4987256;28;20113;-63
2021/12/29 06:30:09;;;;;;;428.75;35.65;;;;;;;;;;4987393;28;20047;-63
2021/12/29 06:32:35;;;;;;;427.15;35.47;;;;;;;;;;4989355;28;20042;-62
2021/12/29 06:35:02;;;;;;;444.63;35.97;;;;;;;;;;4989685;28;20038;-62
2021/12/29 06:37:28;;;;;;;360.02;34.33;;;;;;;;;;4986707;28;20046;-64
2021/12/29 06:39:54;;;;;;;461.80;37.60;;;;;;;;;;4987665;28;20065;-62
2021/12/29 06:42:20;;;;;;;451.35;37.17;;;;;;;;;;4987260;28;20064;-62
2021/12/29 06:44:48;;;;;;;469.23;37.67;;;;;;;;;;4987666;28;20092;-62
2021/12/29 06:47:15;;;;;;;422.42;36.45;;;;;;;;;;4987071;28;20042;-62
2021/12/29 06:49:41;;;;;;;434.15;37.15;;;;;;;;;;4994485;28;20042;-61
2021/12/29 06:52:08;;;;;;;410.77;35.80;;;;;;;;;;4994260;28;20062;-62
2021/12/29 06:54:34;;;;;;;453.17;36.38;;;;;;;;;;4985888;28;20093;-61
2021/12/29 06:57:01;;;;;;;473.05;38.45;;;;;;;;;;4985202;28;20113;-62
2021/12/29 06:59:27;;;;;;;446.50;37.38;;;;;;;;;;4996356;28;20085;-61
2021/12/29 07:01:53;;;;;;;455.90;37.35;;;;;;;;;;4986710;28;20447;-61
2021/12/29 07:04:19;;;;;;;370.27;33.70;;;;;;;;;;4988241;28;20119;-62
2021/12/29 07:06:46;;;;;;;480.35;38.08;;;;;;;;;;4986401;28;20046;-62
2021/12/29 07:09:12;;;;;;;382.45;36.13;;;;;;;;;;4988196;28;20038;-61
2021/12/29 07:11:38;;;;;;;398.27;34.65;;;;;;;;;;4970680;28;20042;-61
2021/12/29 07:14:05;;;;;;;480.42;36.30;;;;;;;;;;5000875;28;20050;-61
2021/12/29 07:16:32;;;;;;;423.55;34.60;;;;;;;;;;4989280;28;20512;-62
2021/12/29 07:18:58;;;;;;;499.38;37.30;;;;;;;;;;4987893;28;20054;-63
2021/12/29 07:21:24;;;;;;;446.48;37.50;;;;;;;;;;4988244;28;20050;-61
2021/12/29 07:23:53;;;;;;;674.65;46.67;;;;;;;;;;4970993;28;20058;-63
2021/12/29 07:26:19;;;;;;;452.95;36.33;;;;;;;;;;4986672;28;20043;-61
2021/12/29 07:28:45;;;;;;;406.80;33.92;;;;;;;;;;4988561;28;20109;-62
2021/12/29 07:31:12;;;;;;;609.03;41.00;;;;;;;;;;4988252;28;20046;-62
2021/12/29 07:33:38;;;;;;;515.63;38.80;;;;;;;;;;4969882;28;20578;-62
2021/12/29 07:36:04;;;;;;;494.80;37.47;;;;;;;;;;4987808;28;20096;-62
2021/12/29 07:38:30;;;;;;;613.70;43.30;;;;;;;;;;4986850;28;20121;-62
2021/12/29 07:40:56;;;;;;;437.92;34.83;;;;;;;;;;4985921;28;20046;-62
2021/12/29 07:43:23;;;;;;;576.22;39.33;;;;;;;;;;4985953;28;20374;-62
2021/12/29 07:45:50;;;;;;;573.75;39.70;;;;;;;;;;4986499;28;20042;-61
2021/12/29 07:48:18;;;;;;;596.92;39.15;;;;;;;;;;4988541;28;20388;-62
2021/12/29 07:50:45;;;;;;;788.10;47.20;;;;;;;;;;4987421;28;20122;-62
2021/12/29 07:53:11;;;;;;;584.83;40.80;;;;;;;;;;4987292;28;20446;-62
2021/12/29 07:55:37;;;;;;;622.92;41.90;;;;;;;;;;4988075;28;20050;-62
2021/12/29 07:58:03;;;;;;;521.30;37.92;;;;;;;;;;4973965;28;20046;-62
2021/12/29 08:00:29;;;;;;;618.00;43.22;;;;;;;;;;4991741;28;20068;-62
2021/12/29 08:02:56;;;;;;;576.75;40.50;;;;;;;;;;4989308;28;20057;-62
2021/12/29 08:05:22;;;;;;;622.38;43.70;;;;;;;;;;4990608;28;20511;-63
2021/12/29 08:07:49;;;;;;;515.80;39.30;;;;;;;;;;4990667;28;20411;-62
2021/12/29 08:10:15;;;;;;;576.50;45.50;;;;;;;;;;4989480;28;20052;-63
2021/12/29 08:12:42;;;;;;;657.50;47.28;;;;;;;;;;4989519;28;20066;-61
2021/12/29 08:15:08;;;;;;;685.80;48.28;;;;;;;;;;4990405;28;20038;-62
2021/12/29 08:17:34;;;;;;;399.90;40.97;;;;;;;;;;4989324;28;20096;-62
2021/12/29 08:20:01;;;;;;;386.13;43.55;;;;;;;;;;4971835;28;20417;-62
2021/12/29 08:22:27;;;;;;;468.98;45.92;;;;;;;;;;4998573;28;20135;-63
2021/12/29 08:24:53;;;;;;;477.98;47.17;;;;;;;;;;4985874;28;20052;-63
2021/12/29 08:27:19;;;;;;;561.30;49.72;;;;;;;;;;4989859;28;20077;-63
2021/12/29 08:29:46;;;;;;;428.92;47.00;;;;;;;;;;4988976;28;20034;-63
2021/12/29 08:32:12;;;;;;;751.03;57.25;;;;;;;;;;4989591;28;20030;-63
2021/12/29 08:34:38;;;;;;;586.22;51.58;;;;;;;;;;4989810;28;20062;-63
2021/12/29 08:37:07;;;;;;;507.42;50.30;;;;;;;;;;4991081;28;20049;-64
2021/12/29 08:39:33;;;;;;;708.65;58.88;;;;;;;;;;4989797;28;20045;-63
2021/12/29 08:41:59;;;;;;;638.60;61.15;;;;;;;;;;4991743;28;20409;-63
2021/12/29 08:44:25;;;;;;;657.40;60.22;;;;;;;;;;4990868;28;20046;-62
2021/12/29 08:46:51;;;;;;;560.65;55.17;;;;;;;;;;4992103;28;20038;-62
2021/12/29 08:49:18;;;;;;;463.27;50.17;;;;;;;;;;4989023;28;20564;-62
2021/12/29 08:51:44;;;;;;;457.10;49.10;;;;;;;;;;4973894;28;20042;-62
2021/12/29 08:54:11;;;;;;;527.13;53.50;;;;;;;;;;4991445;28;20031;-62
2021/12/29 08:56:37;;;;;;;513.72;54.05;;;;;;;;;;4991642;28;20050;-61
2021/12/29 08:59:03;;;;;;;666.33;60.80;;;;;;;;;;4973675;28;20058;-62
2021/12/29 09:01:29;;;;;;;692.83;58.03;;;;;;;;;;4991297;28;20049;-62
2021/12/29 09:03:55;;;;;;;881.05;68.10;;;;;;;;;;4989835;28;20043;-61
2021/12/29 09:06:22;;;;;;;696.17;67.18;;;;;;;;;;4990355;28;20089;-61
2021/12/29 09:08:48;;;;;;;573.95;57.90;;;;;;;;;;4996907;28;20042;-62
2021/12/29 09:11:15;;;;;;;889.80;62.78;;;;;;;;;;4989805;28;20058;-62
2021/12/29 09:13:41;;;;;;;854.90;65.88;;;;;;;;;;4989884;28;20034;-62
2021/12/29 09:16:07;;;;;;;826.70;73.40;;;;;;;;;;4991123;28;20065;-62
2021/12/29 09:18:34;;;;;;;594.58;65.28;;;;;;;;;;4989243;28;20428;-62
2021/12/29 09:21:06;;;;;;;545.20;62.05;;;;;;;;;;4989329;28;20057;-61
2021/12/29 09:23:32;;;;;;;632.58;65.90;;;;;;;;;;4990932;28;20121;-62
2021/12/29 09:25:58;;;;;;;666.15;64.15;;;;;;;;;;4990881;28;20034;-62
2021/12/29 09:28:24;;;;;;;522.08;59.03;;;;;;;;;;4989754;28;20477;-62
2021/12/29 09:30:51;;;;;;;496.00;54.88;;;;;;;;;;4989564;28;20038;-62
2021/12/29 09:33:19;;;;;;;603.00;60.10;;;;;;;;;;4990198;28;20040;-62
2021/12/29 09:35:47;;;;;;;421.05;50.97;;;;;;;;;;4990811;28;20042;-62
2021/12/29 09:38:13;;;;;;;483.73;57.33;;;;;;;;;;4973803;28;21411;-61
2021/12/29 09:40:39;;;;;;;436.95;51.28;;;;;;;;;;4989626;28;20053;-61
2021/12/29 09:43:08;;;;;;;574.13;57.70;;;;;;;;;;4990816;28;20042;-63
2021/12/29 09:45:38;;;;;;;396.48;51.10;;;;;;;;;;4987119;28;20428;-61
2021/12/29 09:48:05;;;;;;;354.30;48.25;;;;;;;;;;4990168;28;20132;-61
2021/12/29 09:50:31;;;;;;;352.27;48.40;;;;;;;;;;4989411;28;20126;-62
2021/12/29 09:52:58;;;;;;;385.33;50.33;;;;;;;;;;4990343;28;20516;-62
2021/12/29 09:55:25;;;;;;;387.05;50.35;;;;;;;;;;4990168;28;20053;-62
2021/12/29 09:57:52;;;;;;;355.77;47.45;;;;;;;;;;4972750;28;20042;-62
2021/12/29 10:00:24;;;;;;;367.77;47.15;;;;;;;;;;4988905;28;20197;-62
2021/12/29 10:02:51;;;;;;;430.20;52.13;;;;;;;;;;4990072;28;20492;-62
2021/12/29 10:05:17;;;;;;;315.98;43.05;;;;;;;;;;4988439;28;20120;-61
2021/12/29 10:07:43;;;;;;;439.73;49.25;;;;;;;;;;4988821;28;20085;-61
2021/12/29 10:10:20;;;;;;;399.30;47.90;;;;;;;;;;4990315;28;20080;-61
2021/12/29 10:12:46;;;;;;;420.02;49.28;;;;;;;;;;4989161;28;20038;-61
2021/12/29 10:15:13;;;;;;;328.83;44.13;;;;;;;;;;4988544;28;20440;-62
2021/12/29 10:17:39;;;;;;;311.67;45.67;;;;;;;;;;4988535;28;20618;-62
2021/12/29 10:20:08;;;;;;;257.90;42.83;;;;;;;;;;4998554;28;20587;-62
2021/12/29 10:22:34;;;;;;;299.33;43.50;;;;;;;;;;4990229;28;20397;-64
2021/12/29 10:25:24;;;;;;;194.88;37.83;;;;;;;;;;4988138;28;20113;-63
2021/12/29 10:27:51;;;;;;;275.17;43.17;;;;;;;;;;4989200;28;20050;-64
2021/12/29 10:30:28;;;;;;;238.95;40.90;;;;;;;;;;4988611;28;20480;-64
2021/12/29 10:32:56;;;;;;;157.13;35.88;;;;;;;;;;4988945;28;20034;-65
2021/12/29 10:35:33;;;;;;;185.45;38.15;;;;;;;;;;4989116;28;20390;-64
2021/12/29 10:38:17;;;;;;;177.40;36.88;;;;;;;;;;4971660;28;20117;-64
2021/12/29 10:40:43;;;;;;;193.73;37.83;;;;;;;;;;4989573;28;20454;-64
2021/12/29 10:43:09;;;;;;;158.18;33.83;;;;;;;;;;4989021;28;20125;-64
2021/12/29 10:45:40;;;;;;;181.75;35.72;;;;;;;;;;4988030;28;20050;-63
2021/12/29 10:48:20;;;;;;;169.95;34.92;;;;;;;;;;4987366;28;20046;-63
2021/12/29 10:51:01;;;;;;;208.27;38.30;;;;;;;;;;5003185;28;20046;-64
2021/12/29 10:53:27;;;;;;;223.18;39.15;;;;;;;;;;5003420;28;20057;-63
2021/12/29 10:55:53;;;;;;;258.38;40.97;;;;;;;;;;4987665;28;20398;-63
2021/12/29 10:58:22;;;;;;;212.27;38.10;;;;;;;;;;4987473;28;20121;-64
2021/12/29 11:00:50;;;;;;;258.52;41.40;;;;;;;;;;4988822;28;20489;-64
2021/12/29 11:03:21;;;;;;;271.13;41.10;;;;;;;;;;4987284;28;20050;-64
2021/12/29 11:05:53;;;;;;;246.23;41.47;;;;;;;;;;4987528;28;20070;-64
2021/12/29 11:08:19;;;;;;;161.95;34.83;;;;;;;;;;4988874;28;20156;-63
2021/12/29 11:10:46;;;;;;;271.63;43.35;;;;;;;;;;4987609;28;20500;-63
2021/12/29 11:13:13;;;;;;;215.13;38.88;;;;;;;;;;4988333;28;20038;-64
2021/12/29 11:15:42;;;;;;;200.18;35.33;;;;;;;;;;4987359;28;20042;-63
2021/12/29 11:18:10;;;;;;;235.75;40.08;;;;;;;;;;4988482;28;20536;-63
2021/12/29 11:20:38;;;;;;;154.25;32.95;;;;;;;;;;4988716;28;20125;-63
2021/12/29 11:23:15;;;;;;;189.27;36.92;;;;;;;;;;4986710;28;20053;-63
2021/12/29 11:25:42;;;;;;;172.32;34.97;;;;;;;;;;4988021;28;20038;-62
2021/12/29 11:28:19;;;;;;;118.97;29.63;;;;;;;;;;4989184;28;20046;-63
2021/12/29 11:30:45;;;;;;;108.95;30.10;;;;;;;;;;4988685;28;20035;-62
2021/12/29 11:33:12;;;;;;;125.25;30.25;;;;;;;;;;4990862;28;20164;-62
2021/12/29 11:35:50;;;;;;;89.35;27.08;;;;;;;;;;4991266;28;20101;-63
2021/12/29 11:38:16;;;;;;;102.45;27.38;;;;;;;;;;4991290;28;20054;-62
2021/12/29 11:40:45;;;;;;;96.22;28.20;;;;;;;;;;4991148;28;20444;-63
2021/12/29 11:43:16;;;;;;;94.38;26.70;;;;;;;;;;4991062;28;20077;-63
2021/12/29 11:45:43;;;;;;;109.45;29.98;;;;;;;;;;4975023;28;20046;-62
2021/12/29 11:48:10;;;;;;;130.38;31.63;;;;;;;;;;4991941;28;20042;-64
2021/12/29 11:50:41;;;;;;;136.55;31.77;;;;;;;;;;4988311;28;20066;-63
2021/12/29 11:53:10;;;;;;;115.95;28.92;;;;;;;;;;4992306;28;20564;-62
2021/12/29 11:55:42;;;;;;;104.00;29.70;;;;;;;;;;4992370;28;20035;-63
2021/12/29 11:58:14;;;;;;;95.40;28.65;;;;;;;;;;4974526;28;20045;-62
2021/12/29 12:00:41;;;;;;;100.45;29.05;;;;;;;;;;4990995;28;20386;-62
2021/12/29 12:03:12;;;;;;;91.20;29.10;;;;;;;;;;4990839;28;20069;-63
2021/12/29 12:05:40;;;;;;;84.97;27.00;;;;;;;;;;4992017;28;20030;-63
2021/12/29 12:08:11;;;;;;;100.50;30.67;;;;;;;;;;4974520;28;20046;-62
2021/12/29 12:10:38;;;;;;;78.25;26.92;;;;;;;;;;4974671;28;20393;-62
2021/12/29 12:13:08;;;;;;;80.05;26.27;;;;;;;;;;4990519;28;20054;-62
2021/12/29 12:15:36;;;;;;;81.72;25.00;;;;;;;;;;4990728;28;20034;-62
2021/12/29 12:18:07;;;;;;;90.78;28.58;;;;;;;;;;4991518;28;20049;-63
2021/12/29 12:20:40;;;;;;;78.22;25.83;;;;;;;;;;4989589;28;20089;-62
2021/12/29 12:23:06;;;;;;;76.85;24.42;;;;;;;;;;5002114;28;20045;-62
2021/12/29 12:25:33;;;;;;;64.32;23.88;;;;;;;;;;4990325;28;20073;-62
2021/12/29 12:28:03;;;;;;;82.43;26.55;;;;;;;;;;4990297;28;20304;-63
2021/12/29 12:30:51;;;;;;;61.83;23.92;;;;;;;;;;4973479;28;20037;-63
2021/12/29 12:33:21;;;;;;;68.95;27.92;;;;;;;;;;4989758;28;20477;-62
2021/12/29 12:35:49;;;;;;;82.30;28.23;;;;;;;;;;4974158;28;20061;-62
2021/12/29 12:38:22;;;;;;;67.20;25.65;;;;;;;;;;4990085;28;20458;-63
2021/12/29 12:41:03;;;;;;;70.50;26.75;;;;;;;;;;4991465;28;20057;-63
2021/12/29 12:43:30;;;;;;;55.13;24.23;;;;;;;;;;4990066;28;20564;-63
2021/12/29 12:45:56;;;;;;;62.53;23.50;;;;;;;;;;4991631;28;20365;-64
2021/12/29 12:48:33;;;;;;;56.28;21.52;;;;;;;;;;4989898;28;20073;-63
2021/12/29 12:51:01;;;;;;;68.05;24.20;;;;;;;;;;4974434;28;20476;-64
2021/12/29 12:53:29;;;;;;;61.90;23.55;;;;;;;;;;4989781;28;20589;-63
2021/12/29 12:55:56;;;;;;;60.50;22.10;;;;;;;;;;4989865;28;20121;-63
2021/12/29 12:58:25;;;;;;;69.45;25.05;;;;;;;;;;4989886;28;20050;-63
2021/12/29 13:00:55;;;;;;;58.15;23.35;;;;;;;;;;4989868;28;20097;-63
2021/12/29 13:03:23;;;;;;;63.05;24.52;;;;;;;;;;4990795;28;20465;-63
2021/12/29 13:05:52;;;;;;;52.50;22.85;;;;;;;;;;4990128;28;20113;-63
2021/12/29 13:08:22;;;;;;;60.28;22.67;;;;;;;;;;4990945;28;20519;-63
2021/12/29 13:10:48;;;;;;;50.58;21.73;;;;;;;;;;4989547;28;20796;-63
2021/12/29 13:13:18;;;;;;;69.13;25.88;;;;;;;;;;4989124;28;20133;-63
2021/12/29 13:15:49;;;;;;;55.47;24.55;;;;;;;;;;4991463;28;20042;-64
2021/12/29 13:18:18;;;;;;;70.15;28.77;;;;;;;;;;4988858;28;20054;-64
2021/12/29 13:20:45;;;;;;;73.65;27.88;;;;;;;;;;4973108;28;20050;-64
2021/12/29 13:23:17;;;;;;;52.38;23.13;;;;;;;;;;4988890;28;20492;-64
2021/12/29 13:25:44;;;;;;;52.80;24.17;;;;;;;;;;4990944;28;20081;-63
2021/12/29 13:28:14;;;;;;;52.92;21.20;;;;;;;;;;4989246;28;20042;-63
2021/12/29 13:30:44;;;;;;;62.63;24.75;;;;;;;;;;4990814;28;20496;-63
2021/12/29 13:33:10;;;;;;;57.20;24.92;;;;;;;;;;4990219;28;20042;-64
2021/12/29 13:35:38;;;;;;;63.65;25.48;;;;;;;;;;4990246;28;20057;-64
2021/12/29 13:38:06;;;;;;;54.97;22.90;;;;;;;;;;4972348;28;20045;-63
2021/12/29 13:40:42;;;;;;;64.03;24.20;;;;;;;;;;4989303;28;20042;-63
2021/12/29 13:43:12;;;;;;;73.15;25.77;;;;;;;;;;4988938;28;20046;-63
2021/12/29 13:45:39;;;;;;;57.08;23.90;;;;;;;;;;4988858;28;20496;-63
2021/12/29 13:48:06;;;;;;;63.72;23.35;;;;;;;;;;4990085;28;20038;-64
2021/12/29 13:50:33;;;;;;;66.55;25.67;;;;;;;;;;4988944;28;20038;-63
2021/12/29 13:53:06;;;;;;;65.85;25.27;;;;;;;;;;4988118;28;20041;-63
2021/12/29 13:55:37;;;;;;;56.00;21.88;;;;;;;;;;5003992;28;20133;-63
2021/12/29 13:58:05;;;;;;;56.70;22.40;;;;;;;;;;4988461;28;20489;-64
2021/12/29 14:00:32;;;;;;;54.30;21.02;;;;;;;;;;4988533;28;20563;-63
2021/12/29 14:03:01;;;;;;;55.20;20.63;;;;;;;;;;4990223;28;20405;-63
2021/12/29 14:05:39;;;;;;;46.13;20.25;;;;;;;;;;4988603;28;20089;-63
2021/12/29 14:08:07;;;;;;;46.10;19.20;;;;;;;;;;4988440;28;20061;-63
2021/12/29 14:10:33;;;;;;;53.33;21.17;;;;;;;;;;4970292;28;20482;-63
2021/12/29 14:13:06;;;;;;;56.47;20.65;;;;;;;;;;4990131;28;20074;-63